Time;durP1;ratioP1;P1;durP2;ratioP2;P2;SDS_P1;SDS_P2;PMS_P1;PMS_P2;Temp;Humidity;BMP_temperature;BMP_pressure;BME280_temperature;BME280_humidity;BME280_pressure;Samples;Min_cycle;Max_cycle;Signal;HPM_P1;HPM_P2
2022/03/05 00:00:57;;;;;;;;;;;1.20;1.00;;;;;;10543393;27;84262;-52
2022/03/05 00:05:57;;;;;;;;;;;1.10;1.00;;;;;;10523930;27;85797;-52
2022/03/05 00:10:58;;;;;;;;;;;1.10;1.00;;;;;;10523182;27;85438;-54
2022/03/05 00:15:58;;;;;;;;;;;1.00;1.00;;;;;;10542644;27;84216;-50
2022/03/05 00:20:59;;;;;;;;;;;0.90;1.00;;;;;;10543227;27;83810;-47
2022/03/05 00:25:59;;;;;;;;;;;0.90;1.00;;;;;;10539150;27;83630;-51
2022/03/05 00:31:01;;;;;;;;;;;0.80;1.00;;;;;;10540296;27;84100;-47
2022/03/05 00:36:02;;;;;;;;;;;0.80;1.00;;;;;;10539707;27;84013;-47
2022/03/05 00:41:02;;;;;;;;;;;0.80;1.00;;;;;;10534617;27;83879;-50
2022/03/05 00:46:03;;;;;;;;;;;0.80;1.00;;;;;;10538365;27;85670;-48
2022/03/05 00:51:04;;;;;;;;;;;0.80;1.00;;;;;;10520856;27;84172;-47
2022/03/05 00:56:05;;;;;;;;;;;0.70;1.00;;;;;;10538703;27;84182;-47
2022/03/05 01:01:05;;;;;;;;;;;0.70;1.00;;;;;;10538545;27;83798;-49
2022/03/05 01:06:06;;;;;;;;;;;0.70;1.00;;;;;;10510641;27;83786;-48
2022/03/05 01:11:08;;;;;;;;;;;0.60;1.00;;;;;;10538350;27;83817;-47
2022/03/05 01:16:09;;;;;;;;;;;0.50;1.00;;;;;;10493710;27;84304;-47
2022/03/05 01:21:10;;;;;;;;;;;0.50;1.00;;;;;;10495410;27;84134;-47
2022/03/05 01:26:10;;;;;;;;;;;0.50;1.00;;;;;;10505604;27;84318;-47
2022/03/05 01:31:11;;;;;;;;;;;0.40;1.00;;;;;;10520209;27;83686;-49
2022/03/05 01:36:12;;;;;;;;;;;0.40;1.00;;;;;;10537290;27;83950;-47
2022/03/05 01:41:13;;;;;;;;;;;0.40;1.00;;;;;;10542633;22;83709;-48
2022/03/05 01:46:13;;;;;;;;;;;0.40;1.00;;;;;;10453176;28;84509;-51
2022/03/05 01:51:14;;;;;;;;;;;0.30;1.00;;;;;;10454007;28;83947;-57
2022/03/05 01:56:14;;;;;;;;;;;0.30;1.00;;;;;;10453211;28;83292;-52
2022/03/05 02:01:15;;;;;;;;;;;0.30;1.00;;;;;;10435663;28;83285;-51
2022/03/05 02:06:16;;;;;;;;;;;0.30;1.00;;;;;;10453079;28;83249;-51
2022/03/05 02:11:16;;;;;;;;;;;0.20;1.00;;;;;;10453665;28;83227;-52
2022/03/05 02:16:18;;;;;;;;;;;0.20;1.00;;;;;;10452807;27;83257;-51
2022/03/05 02:21:20;;;;;;;;;;;0.10;1.00;;;;;;10452908;28;83307;-53
2022/03/05 02:26:22;;;;;;;;;;;0.10;1.00;;;;;;10452078;28;83444;-52
2022/03/05 02:31:23;;;;;;;;;;;0.10;1.00;;;;;;10453233;28;84034;-53
2022/03/05 02:36:25;;;;;;;;;;;0.10;1.00;;;;;;10433773;28;86037;-53
2022/03/05 02:41:26;;;;;;;;;;;0.10;1.00;;;;;;10452395;28;83973;-54
2022/03/05 02:46:28;;;;;;;;;;;0.10;1.00;;;;;;10452126;28;83520;-54
2022/03/05 02:51:29;;;;;;;;;;;0.00;1.00;;;;;;10453421;28;83383;-54
2022/03/05 02:56:29;;;;;;;;;;;0.00;1.00;;;;;;10417172;28;85922;-57
2022/03/05 03:01:30;;;;;;;;;;;0.10;1.00;;;;;;10455021;28;83389;-53
2022/03/05 03:06:31;;;;;;;;;;;0.00;1.00;;;;;;10435578;28;86154;-52
2022/03/05 03:11:31;;;;;;;;;;;0.10;1.00;;;;;;10451584;28;83322;-53
2022/03/05 03:16:32;;;;;;;;;;;0.00;1.00;;;;;;10450133;28;83990;-54
2022/03/05 03:21:33;;;;;;;;;;;0.00;1.00;;;;;;10450615;28;84141;-56
2022/03/05 03:26:34;;;;;;;;;;;0.00;1.00;;;;;;10449254;28;84888;-51
2022/03/05 03:31:34;;;;;;;;;;;0.00;1.00;;;;;;10450182;28;83436;-55
2022/03/05 03:36:35;;;;;;;;;;;0.00;1.00;;;;;;10449764;28;84396;-50
2022/03/05 03:41:35;;;;;;;;;;;0.00;1.00;;;;;;10429861;27;83780;-49
2022/03/05 03:46:36;;;;;;;;;;;0.00;1.00;;;;;;10435369;28;83911;-51
2022/03/05 03:51:39;;;;;;;;;;;0.00;1.00;;;;;;10426616;28;83345;-55
2022/03/05 03:56:39;;;;;;;;;;;0.00;1.00;;;;;;10427363;28;83488;-56
2022/03/05 04:01:40;;;;;;;;;;;0.00;1.00;;;;;;10451761;28;84116;-55
2022/03/05 04:11:59;;;;;;;;;;;-0.10;1.00;;;;;;10456566;28;83393;-54
2022/03/05 04:17:00;;;;;;;;;;;-0.10;1.00;;;;;;10437340;28;83349;-51
2022/03/05 04:22:01;;;;;;;;;;;-0.10;1.00;;;;;;10437742;28;84402;-56
2022/03/05 04:27:01;;;;;;;;;;;-0.10;1.00;;;;;;10444513;28;84298;-50
2022/03/05 04:32:02;;;;;;;;;;;-0.10;1.00;;;;;;10454391;27;83708;-55
2022/03/05 04:37:03;;;;;;;;;;;-0.10;1.00;;;;;;10436557;28;84285;-54
2022/03/05 04:42:04;;;;;;;;;;;-0.10;1.00;;;;;;10454783;27;84328;-53
2022/03/05 04:47:04;;;;;;;;;;;-0.20;1.00;;;;;;10455182;28;83572;-50
2022/03/05 04:52:05;;;;;;;;;;;-0.20;1.00;;;;;;10436347;28;86121;-56
2022/03/05 04:57:06;;;;;;;;;;;-0.30;1.00;;;;;;10452618;28;84032;-53
2022/03/05 05:02:07;;;;;;;;;;;-0.30;1.00;;;;;;10453972;28;83476;-53
2022/03/05 05:07:08;;;;;;;;;;;-0.30;1.00;;;;;;10434314;28;84285;-55
2022/03/05 05:12:09;;;;;;;;;;;-0.30;1.00;;;;;;10451319;27;84169;-55
2022/03/05 05:17:09;;;;;;;;;;;-0.30;1.00;;;;;;10442762;28;83410;-49
2022/03/05 05:22:11;;;;;;;;;;;-0.30;1.00;;;;;;10438084;28;83846;-52
2022/03/05 05:27:12;;;;;;;;;;;-0.30;1.00;;;;;;10430348;28;85107;-50
2022/03/05 05:32:12;;;;;;;;;;;-0.30;1.00;;;;;;10450488;27;84073;-51
2022/03/05 05:37:13;;;;;;;;;;;-0.30;1.00;;;;;;10449477;28;84215;-52
2022/03/05 05:42:15;;;;;;;;;;;-0.40;1.00;;;;;;10447228;28;83992;-53
2022/03/05 05:47:15;;;;;;;;;;;-0.30;5.70;;;;;;10449626;28;83641;-51
2022/03/05 05:52:18;;;;;;;;;;;-0.30;1.00;;;;;;10455689;28;83419;-55
2022/03/05 05:57:18;;;;;;;;;;;-0.30;1.00;;;;;;10455620;28;83221;-54
2022/03/05 06:02:19;;;;;;;;;;;-0.30;1.00;;;;;;10452795;28;83418;-52
2022/03/05 06:07:19;;;;;;;;;;;-0.30;1.00;;;;;;10450305;28;83973;-52
2022/03/05 06:12:21;;;;;;;;;;;-0.40;1.00;;;;;;10445630;28;83937;-53
2022/03/05 06:17:21;;;;;;;;;;;-0.40;1.00;;;;;;10427974;28;91980;-55
2022/03/05 06:22:23;;;;;;;;;;;-0.40;7.10;;;;;;10447774;27;83603;-54
2022/03/05 06:27:23;;;;;;;;;;;-0.40;3.70;;;;;;10431003;28;85028;-49
2022/03/05 06:32:24;;;;;;;;;;;-0.30;1.00;;;;;;10451047;28;83631;-52
2022/03/05 06:37:25;;;;;;;;;;;-0.40;11.70;;;;;;10445224;28;84018;-52
2022/03/05 06:42:26;;;;;;;;;;;-0.30;4.50;;;;;;10447855;27;83506;-52
2022/03/05 06:47:26;;;;;;;;;;;-0.30;3.40;;;;;;10447141;28;83952;-51
2022/03/05 06:52:29;;;;;;;;;;;-0.20;8.20;;;;;;10447145;28;104917;-54
2022/03/05 06:57:30;;;;;;;;;;;-0.20;3.40;;;;;;10448293;28;83393;-54
2022/03/05 07:02:30;;;;;;;;;;;-0.10;1.00;;;;;;10435127;27;84094;-52
2022/03/05 07:07:31;;;;;;;;;;;0.00;1.00;;;;;;10443465;28;83375;-55
2022/03/05 07:12:32;;;;;;;;;;;0.00;1.00;;;;;;10438789;28;83890;-51
2022/03/05 07:17:32;;;;;;;;;;;0.30;1.00;;;;;;10447348;28;83886;-54
2022/03/05 07:22:33;;;;;;;;;;;0.70;1.00;;;;;;10448290;28;83352;-56
2022/03/05 07:27:33;;;;;;;;;;;1.20;1.00;;;;;;10448506;28;84337;-54
2022/03/05 07:32:34;;;;;;;;;;;1.20;1.00;;;;;;10431756;28;84555;-54
2022/03/05 07:37:35;;;;;;;;;;;1.80;1.00;;;;;;10455288;27;83877;-53
2022/03/05 07:42:35;;;;;;;;;;;2.30;1.00;;;;;;10459049;27;83238;-54
2022/03/05 07:47:36;;;;;;;;;;;2.80;1.00;;;;;;10439071;28;84526;-53
2022/03/05 07:52:36;;;;;;;;;;;3.60;1.00;;;;;;10424789;28;84032;-56
2022/03/05 07:57:37;;;;;;;;;;;4.10;1.00;;;;;;10451688;28;84219;-53
2022/03/05 08:02:38;;;;;;;;;;;4.50;1.00;;;;;;10451998;27;84706;-55
2022/03/05 08:07:38;;;;;;;;;;;5.40;1.00;;;;;;10449916;28;83539;-47
2022/03/05 08:12:39;;;;;;;;;;;6.00;1.00;;;;;;10458709;27;83838;-63
2022/03/05 08:17:48;;;;;;;;;;;6.40;1.00;;;;;;10453975;28;83455;-64
2022/03/05 08:22:49;;;;;;;;;;;7.00;99.90;;;;;;10450317;27;83879;-63
2022/03/05 08:27:50;;;;;;;;;;;7.30;99.90;;;;;;10450581;28;84328;-61
2022/03/05 08:32:50;;;;;;;;;;;7.20;99.90;;;;;;10445175;28;83336;-58
2022/03/05 08:37:51;;;;;;;;;;;7.60;99.90;;;;;;10449740;28;83716;-49
2022/03/05 08:42:52;;;;;;;;;;;8.20;99.90;;;;;;10447861;27;83648;-53
2022/03/05 08:47:52;;;;;;;;;;;8.90;1.00;;;;;;10448907;27;84144;-60
2022/03/05 08:52:53;;;;;;;;;;;9.00;1.00;;;;;;10448908;27;84098;-51
2022/03/05 08:57:53;;;;;;;;;;;9.40;1.00;;;;;;10447304;28;84045;-53
2022/03/05 09:02:54;;;;;;;;;;;9.00;1.00;;;;;;10430549;27;83378;-53
2022/03/05 09:07:54;;;;;;;;;;;9.50;1.00;;;;;;10447918;28;84066;-58
2022/03/05 09:12:55;;;;;;;;;;;10.00;99.90;;;;;;10450361;28;84076;-50
2022/03/05 09:17:56;;;;;;;;;;;10.50;99.90;;;;;;10430171;28;86630;-55
2022/03/05 09:22:56;;;;;;;;;;;10.90;1.00;;;;;;10430178;27;85020;-56
2022/03/05 09:27:57;;;;;;;;;;;11.00;99.90;;;;;;10449545;28;83244;-58
2022/03/05 09:32:57;;;;;;;;;;;11.10;1.00;;;;;;10451540;27;83959;-52
2022/03/05 09:37:58;;;;;;;;;;;11.60;99.90;;;;;;10448386;28;84208;-58
2022/03/05 09:43:00;;;;;;;;;;;11.90;93.80;;;;;;10450183;27;83993;-51
2022/03/05 09:48:00;;;;;;;;;;;12.40;1.00;;;;;;10448526;28;83618;-55
2022/03/05 09:53:01;;;;;;;;;;;11.90;99.90;;;;;;10433275;27;86299;-54
2022/03/05 09:58:02;;;;;;;;;;;12.00;99.90;;;;;;10448064;28;84003;-52
2022/03/05 10:03:06;;;;;;;;;;;12.40;99.90;;;;;;10443492;28;83489;-54
2022/03/05 10:08:10;;;;;;;;;;;12.00;99.90;;;;;;10450746;28;83207;-51
2022/03/05 10:13:20;;;;;;;;;;;12.60;99.90;;;;;;10450631;28;83348;-51
2022/03/05 10:18:27;;;;;;;;;;;13.20;1.00;;;;;;10451353;28;83534;-50
2022/03/05 10:23:32;;;;;;;;;;;13.30;1.00;;;;;;10451540;28;84027;-54
2022/03/05 10:28:32;;;;;;;;;;;12.70;1.00;;;;;;10450873;28;83387;-53
2022/03/05 10:33:33;;;;;;;;;;;13.50;1.00;;;;;;10451401;28;84001;-53
2022/03/05 10:38:52;;;;;;;;;;;14.00;1.00;;;;;;10450716;28;83356;-52
2022/03/05 10:44:22;;;;;;;;;;;14.00;99.90;;;;;;10450361;28;84054;-49
2022/03/05 10:49:22;;;;;;;;;;;14.50;1.00;;;;;;10440046;28;84237;-50
2022/03/05 10:54:28;;;;;;;;;;;14.70;99.90;;;;;;10449420;28;84057;-50
2022/03/05 10:59:33;;;;;;;;;;;14.40;99.90;;;;;;10449404;28;85146;-49
2022/03/05 11:04:39;;;;;;;;;;;14.90;99.90;;;;;;10449636;28;83778;-50
2022/03/05 11:09:42;;;;;;;;;;;14.60;1.00;;;;;;10450368;27;84130;-52
2022/03/05 11:14:44;;;;;;;;;;;14.90;1.00;;;;;;10458030;28;84155;-53
2022/03/05 11:19:45;;;;;;;;;;;15.20;1.00;;;;;;10456928;28;84096;-50
2022/03/05 11:24:46;;;;;;;;;;;15.50;1.00;;;;;;10457254;27;84005;-51
2022/03/05 11:29:59;;;;;;;;;;;15.70;1.00;;;;;;10456115;28;85825;-48
2022/03/05 11:35:00;;;;;;;;;;;15.60;1.00;;;;;;10456469;27;84165;-49
2022/03/05 11:40:03;;;;;;;;;;;15.30;1.00;;;;;;10437910;28;84103;-51
2022/03/05 11:45:22;;;;;;;;;;;16.10;1.00;;;;;;10456656;27;83288;-53
2022/03/05 11:50:23;;;;;;;;;;;15.70;99.90;;;;;;10456333;28;84830;-51
2022/03/05 11:55:24;;;;;;;;;;;15.60;99.90;;;;;;10437308;28;86291;-52
2022/03/05 12:00:25;;;;;;;;;;;15.90;1.00;;;;;;10456850;27;83315;-54
2022/03/05 12:05:38;;;;;;;;;;;15.60;1.00;;;;;;10456006;28;83230;-51
2022/03/05 12:10:39;;;;;;;;;;;16.30;1.00;;;;;;10455833;28;83432;-54
2022/03/05 12:15:43;;;;;;;;;;;16.10;14.20;;;;;;10456091;28;84063;-53
2022/03/05 12:20:45;;;;;;;;;;;16.30;1.00;;;;;;10455782;27;84107;-51
2022/03/05 12:25:47;;;;;;;;;;;16.40;1.00;;;;;;10454382;28;84099;-53
2022/03/05 12:30:47;;;;;;;;;;;16.60;1.00;;;;;;10437802;28;86630;-56
2022/03/05 12:35:48;;;;;;;;;;;16.30;1.00;;;;;;10456596;28;83225;-53
2022/03/05 12:40:49;;;;;;;;;;;16.10;99.90;;;;;;10457984;27;83199;-51
2022/03/05 12:45:50;;;;;;;;;;;15.90;99.90;;;;;;10455613;27;84067;-53
2022/03/05 12:50:51;;;;;;;;;;;16.00;1.00;;;;;;10456176;28;83297;-49
2022/03/05 12:55:55;;;;;;;;;;;16.10;1.00;;;;;;10435820;28;84140;-49
2022/03/05 13:00:56;;;;;;;;;;;15.90;1.00;;;;;;10451808;28;83872;-54
2022/03/05 13:05:58;;;;;;;;;;;15.30;1.00;;;;;;10453498;28;83223;-53
2022/03/05 13:11:00;;;;;;;;;;;15.70;1.00;;;;;;10454308;28;84158;-54
2022/03/05 13:16:01;;;;;;;;;;;15.60;1.00;;;;;;10452635;28;84427;-52
2022/03/05 13:21:03;;;;;;;;;;;15.30;99.90;;;;;;10453415;28;83463;-52
2022/03/05 13:26:04;;;;;;;;;;;15.40;99.90;;;;;;10452373;28;84011;-53
2022/03/05 13:31:05;;;;;;;;;;;15.80;99.90;;;;;;10439372;27;84037;-53
2022/03/05 13:36:10;;;;;;;;;;;15.50;1.00;;;;;;10425559;28;86489;-46
2022/03/05 13:46:33;;;;;;;;;;;15.20;81.40;;;;;;10451427;28;84322;-47
2022/03/05 13:51:33;;;;;;;;;;;14.90;99.90;;;;;;10455095;28;84194;-50
2022/03/05 13:56:44;;;;;;;;;;;14.80;99.90;;;;;;10454270;28;83694;-44
2022/03/05 14:01:48;;;;;;;;;;;14.50;99.90;;;;;;10454277;28;83631;-43
2022/03/05 14:06:50;;;;;;;;;;;14.70;99.90;;;;;;10446429;28;83967;-47
2022/03/05 14:12:00;;;;;;;;;;;13.90;99.90;;;;;;10451726;28;84870;-45
2022/03/05 14:17:00;;;;;;;;;;;13.30;99.90;;;;;;10439019;28;83840;-46
2022/03/05 14:22:10;;;;;;;;;;;12.50;99.90;;;;;;10435957;28;84146;-44
2022/03/05 14:27:12;;;;;;;;;;;11.90;1.00;;;;;;10452810;28;83721;-45
2022/03/05 14:32:13;;;;;;;;;;;11.90;99.90;;;;;;10443756;28;84126;-44
2022/03/05 14:37:13;;;;;;;;;;;11.20;99.90;;;;;;10410882;28;84079;-43
2022/03/05 14:42:14;;;;;;;;;;;11.20;99.90;;;;;;10431594;28;84329;-45
2022/03/05 14:47:15;;;;;;;;;;;11.20;1.00;;;;;;10451541;27;83659;-43
2022/03/05 14:52:15;;;;;;;;;;;11.60;1.00;;;;;;10452680;28;84132;-43
2022/03/05 14:57:20;;;;;;;;;;;12.00;1.00;;;;;;10443013;28;84083;-45
2022/03/05 15:02:20;;;;;;;;;;;12.20;1.00;;;;;;10452405;28;83759;-48
2022/03/05 15:07:21;;;;;;;;;;;12.20;1.00;;;;;;10452643;28;83709;-42
2022/03/05 15:12:21;;;;;;;;;;;12.50;99.90;;;;;;10420464;28;84439;-45
2022/03/05 15:17:22;;;;;;;;;;;12.20;1.00;;;;;;10432598;28;86560;-48
2022/03/05 15:22:22;;;;;;;;;;;11.60;1.00;;;;;;10448025;28;84104;-58
2022/03/05 15:27:23;;;;;;;;;;;11.10;1.00;;;;;;10415291;28;86286;-53
2022/03/05 15:32:24;;;;;;;;;;;10.50;1.00;;;;;;10434171;28;83959;-56
2022/03/05 15:37:24;;;;;;;;;;;10.30;1.00;;;;;;10412560;28;84169;-43
2022/03/05 15:42:25;;;;;;;;;;;10.00;1.00;;;;;;10408731;28;83725;-55
2022/03/05 15:47:26;;;;;;;;;;;9.80;1.00;;;;;;10420164;28;83730;-46
2022/03/05 15:52:27;;;;;;;;;;;9.50;99.90;;;;;;10416261;28;86230;-50
2022/03/05 15:57:27;;;;;;;;;;;9.40;99.90;;;;;;10454061;28;83744;-52
2022/03/05 16:02:28;;;;;;;;;;;9.40;99.90;;;;;;10458829;28;83951;-50
2022/03/05 16:07:28;;;;;;;;;;;9.40;99.90;;;;;;10457513;28;84664;-53
2022/03/05 16:12:29;;;;;;;;;;;9.20;99.90;;;;;;10457684;28;83507;-56
2022/03/05 16:17:30;;;;;;;;;;;9.00;99.90;;;;;;10436405;28;86022;-44
2022/03/05 16:22:30;;;;;;;;;;;8.80;99.90;;;;;;10432930;28;84030;-46
2022/03/05 16:27:31;;;;;;;;;;;8.80;99.90;;;;;;10454178;28;83741;-54
2022/03/05 16:32:31;;;;;;;;;;;8.70;99.90;;;;;;10450245;28;84104;-45
2022/03/05 16:37:32;;;;;;;;;;;8.70;99.90;;;;;;10456495;28;84202;-44
2022/03/05 16:42:33;;;;;;;;;;;8.60;73.60;;;;;;10455965;28;84042;-46
2022/03/05 16:47:34;;;;;;;;;;;8.40;99.90;;;;;;10450999;28;83980;-51
2022/03/05 16:52:35;;;;;;;;;;;8.30;99.90;;;;;;10440685;28;84161;-45
2022/03/05 16:57:36;;;;;;;;;;;8.20;99.90;;;;;;10452964;28;84423;-45
2022/03/05 17:02:38;;;;;;;;;;;8.00;99.90;;;;;;10433024;28;83947;-45
2022/03/05 17:07:40;;;;;;;;;;;8.10;99.90;;;;;;10453463;27;84050;-49
2022/03/05 17:12:41;;;;;;;;;;;8.00;1.00;;;;;;10455191;28;84141;-47
2022/03/05 17:17:42;;;;;;;;;;;7.90;1.00;;;;;;10456058;28;83649;-45
2022/03/05 17:22:43;;;;;;;;;;;7.70;1.00;;;;;;10420955;28;84216;-44
2022/03/05 17:27:43;;;;;;;;;;;7.70;1.00;;;;;;10453451;28;83673;-44
2022/03/05 17:32:44;;;;;;;;;;;7.60;1.00;;;;;;10454069;28;85007;-56
2022/03/05 17:37:46;;;;;;;;;;;7.40;1.00;;;;;;10452169;28;83431;-59
2022/03/05 17:42:48;;;;;;;;;;;7.30;99.90;;;;;;10443400;28;83519;-53
2022/03/05 17:47:53;;;;;;;;;;;7.20;99.90;;;;;;10443615;28;83924;-52
2022/03/05 17:52:54;;;;;;;;;;;7.10;1.00;;;;;;10441677;28;85322;-50
2022/03/05 17:57:54;;;;;;;;;;;7.00;1.00;;;;;;10442630;28;84129;-44
2022/03/05 18:02:56;;;;;;;;;;;6.80;1.00;;;;;;10448806;28;83995;-59
2022/03/05 18:07:56;;;;;;;;;;;6.80;1.00;;;;;;10445081;28;84176;-55
2022/03/05 18:12:57;;;;;;;;;;;6.70;99.90;;;;;;10427800;28;86137;-52
2022/03/05 18:17:58;;;;;;;;;;;6.60;1.00;;;;;;10446565;28;84106;-46
2022/03/05 18:22:58;;;;;;;;;;;6.50;1.00;;;;;;10408335;28;86281;-55
2022/03/05 18:27:59;;;;;;;;;;;6.40;1.00;;;;;;10411142;28;85932;-51
2022/03/05 18:32:59;;;;;;;;;;;6.20;1.00;;;;;;10444577;28;84345;-51
2022/03/05 18:38:00;;;;;;;;;;;6.10;90.70;;;;;;10445856;28;84671;-54
2022/03/05 18:43:01;;;;;;;;;;;6.00;99.90;;;;;;10444305;28;84049;-50
2022/03/05 18:48:01;;;;;;;;;;;5.90;1.00;;;;;;10442753;28;84220;-50
2022/03/05 18:53:02;;;;;;;;;;;5.80;1.00;;;;;;10419648;28;86089;-48
2022/03/05 18:58:03;;;;;;;;;;;5.70;68.30;;;;;;10440289;28;84511;-55
2022/03/05 19:03:04;;;;;;;;;;;5.60;99.90;;;;;;10443101;28;83447;-55
2022/03/05 19:08:04;;;;;;;;;;;5.50;1.00;;;;;;10440299;28;85619;-55
2022/03/05 19:13:05;;;;;;;;;;;5.40;1.00;;;;;;10442219;28;83969;-55
2022/03/05 19:18:06;;;;;;;;;;;5.30;1.00;;;;;;10444432;28;83532;-54
2022/03/05 19:23:06;;;;;;;;;;;5.30;1.00;;;;;;10426566;28;86231;-53
2022/03/05 19:28:07;;;;;;;;;;;5.30;1.00;;;;;;10441789;28;83558;-51
2022/03/05 19:33:08;;;;;;;;;;;5.30;1.00;;;;;;10448752;27;84507;-57
2022/03/05 19:38:10;;;;;;;;;;;5.20;1.00;;;;;;10433298;28;86262;-54
2022/03/05 19:43:11;;;;;;;;;;;5.10;1.00;;;;;;10452137;28;83965;-50
2022/03/05 19:48:12;;;;;;;;;;;5.00;1.00;;;;;;10432854;28;85113;-46
2022/03/05 19:53:13;;;;;;;;;;;5.00;1.00;;;;;;10446244;28;84274;-49
2022/03/05 19:58:14;;;;;;;;;;;4.90;1.00;;;;;;10449739;28;84079;-57
2022/03/05 20:03:14;;;;;;;;;;;4.80;10.40;;;;;;10466285;22;84580;-53
2022/03/05 20:08:15;;;;;;;;;;;4.80;91.10;;;;;;10455398;28;83443;-64
2022/03/05 20:13:15;;;;;;;;;;;4.80;84.70;;;;;;10460372;27;84478;-50
2022/03/05 20:18:16;;;;;;;;;;;4.70;99.90;;;;;;10456016;27;84014;-51
2022/03/05 20:23:16;;;;;;;;;;;4.60;99.90;;;;;;10470034;27;91305;-50
2022/03/05 20:28:17;;;;;;;;;;;4.50;99.90;;;;;;10469420;27;84255;-51
2022/03/05 20:33:19;;;;;;;;;;;4.40;99.90;;;;;;10469194;27;83727;-49
2022/03/05 20:38:21;;;;;;;;;;;4.30;99.90;;;;;;10452006;28;84158;-47
2022/03/05 20:43:21;;;;;;;;;;;4.30;99.90;;;;;;10449517;27;84899;-48
2022/03/05 20:48:22;;;;;;;;;;;4.20;99.90;;;;;;10452156;28;83807;-49
2022/03/05 20:53:22;;;;;;;;;;;4.20;99.90;;;;;;10453428;27;83804;-49
2022/03/05 20:58:23;;;;;;;;;;;4.10;99.90;;;;;;10448008;27;84418;-48
2022/03/05 21:03:23;;;;;;;;;;;3.90;99.90;;;;;;10454639;27;84180;-46
2022/03/05 21:08:24;;;;;;;;;;;3.90;99.90;;;;;;10455395;28;84368;-47
2022/03/05 21:13:25;;;;;;;;;;;3.80;99.90;;;;;;10458819;27;84105;-48
2022/03/05 21:18:25;;;;;;;;;;;3.80;99.90;;;;;;10477837;27;83820;-49
2022/03/05 21:23:26;;;;;;;;;;;3.70;1.00;;;;;;10453270;28;83816;-51
2022/03/05 21:28:27;;;;;;;;;;;3.60;1.00;;;;;;10430202;28;84770;-46
2022/03/05 21:33:27;;;;;;;;;;;3.60;1.00;;;;;;10455223;27;85085;-48
2022/03/05 21:38:28;;;;;;;;;;;3.50;1.00;;;;;;10452805;27;83899;-46
2022/03/05 21:43:29;;;;;;;;;;;3.50;1.00;;;;;;10435151;28;84431;-47
2022/03/05 21:48:29;;;;;;;;;;;3.40;1.00;;;;;;10465181;27;83777;-52
2022/03/05 21:53:30;;;;;;;;;;;3.40;1.00;;;;;;10493095;27;84589;-48
2022/03/05 21:58:30;;;;;;;;;;;3.30;1.00;;;;;;10477800;27;85059;-46
2022/03/05 22:03:31;;;;;;;;;;;3.30;1.00;;;;;;10470380;27;84492;-50
2022/03/05 22:08:31;;;;;;;;;;;3.30;1.00;;;;;;10438641;28;84145;-48
2022/03/05 22:13:32;;;;;;;;;;;3.20;1.00;;;;;;10456537;27;84534;-49
2022/03/05 22:18:33;;;;;;;;;;;3.20;1.00;;;;;;10452496;28;83841;-47
2022/03/05 22:23:34;;;;;;;;;;;3.10;1.00;;;;;;10456749;27;84227;-47
2022/03/05 22:28:35;;;;;;;;;;;3.10;1.00;;;;;;10494462;27;83899;-49
2022/03/05 22:33:35;;;;;;;;;;;3.00;1.00;;;;;;10495798;27;83834;-48
2022/03/05 22:38:36;;;;;;;;;;;3.00;1.00;;;;;;10495250;27;84223;-51
2022/03/05 22:43:36;;;;;;;;;;;3.00;1.00;;;;;;10464149;27;84191;-49
2022/03/05 22:48:37;;;;;;;;;;;3.00;1.00;;;;;;10453860;28;83892;-47
2022/03/05 22:53:37;;;;;;;;;;;2.90;1.00;;;;;;10452992;28;83908;-48
2022/03/05 22:58:38;;;;;;;;;;;2.80;1.00;;;;;;10451828;27;84596;-47
2022/03/05 23:14:17;;;;;;;;;;;2.70;1.00;;;;;;10492447;27;84772;-48
2022/03/05 23:19:17;;;;;;;;;;;2.70;1.00;;;;;;10492918;27;84299;-48
2022/03/05 23:24:18;;;;;;;;;;;2.70;1.00;;;;;;10495299;27;84042;-47
2022/03/05 23:29:19;;;;;;;;;;;2.60;1.00;;;;;;10474684;27;83789;-50
2022/03/05 23:34:21;;;;;;;;;;;2.70;1.00;;;;;;10474051;27;84025;-50
2022/03/05 23:39:22;;;;;;;;;;;2.60;1.00;;;;;;10493508;27;83720;-48
2022/03/05 23:44:23;;;;;;;;;;;2.60;1.00;;;;;;10494173;27;88426;-47
2022/03/05 23:49:23;;;;;;;;;;;2.50;1.00;;;;;;10468444;27;83995;-48
2022/03/05 23:54:24;;;;;;;;;;;2.50;1.00;;;;;;10451602;28;83683;-48
2022/03/05 23:59:24;;;;;;;;;;;2.50;1.00;;;;;;10431926;28;85418;-47
